createdAt,value
2018-05-15T00:01:40.370Z,19.23
2018-05-15T00:04:07.763Z,19.32
2018-05-15T00:06:35.246Z,19.30
2018-05-15T00:09:02.656Z,19.22
2018-05-15T00:11:30.056Z,19.30
2018-05-15T00:13:57.452Z,19.30
2018-05-15T00:16:24.831Z,19.26
2018-05-15T00:18:52.334Z,19.00
2018-05-15T00:21:19.714Z,18.83
2018-05-15T00:23:47.823Z,18.83
2018-05-15T00:26:15.284Z,18.57
2018-05-15T00:28:42.672Z,18.74
2018-05-15T00:31:10.047Z,18.58
2018-05-15T00:33:37.432Z,18.69
2018-05-15T00:36:04.808Z,18.73
2018-05-15T00:38:32.195Z,18.33
2018-05-15T00:40:59.571Z,18.25
2018-05-15T00:43:26.957Z,18.40
2018-05-15T00:45:54.339Z,18.41
2018-05-15T00:48:21.719Z,18.38
2018-05-15T00:50:49.110Z,18.71
2018-05-15T00:53:16.566Z,18.55
2018-05-15T00:55:44.021Z,18.32
2018-05-15T00:58:11.403Z,18.26
2018-05-15T01:00:38.782Z,18.44
2018-05-15T01:03:06.170Z,18.29
2018-05-15T01:05:33.557Z,18.28
2018-05-15T01:08:00.935Z,18.23
2018-05-15T01:10:28.318Z,18.28
2018-05-15T01:12:55.725Z,18.27
2018-05-15T01:15:23.109Z,18.11
2018-05-15T01:17:50.656Z,18.15
2018-05-15T01:20:18.135Z,18.12
2018-05-15T01:22:45.555Z,18.11
2018-05-15T01:25:12.926Z,18.15
2018-05-15T01:27:40.352Z,18.26
2018-05-15T01:30:07.737Z,17.97
2018-05-15T01:32:35.119Z,17.99
2018-05-15T01:35:02.526Z,17.98
2018-05-15T01:37:29.903Z,17.98
2018-05-15T01:39:57.297Z,18.03
2018-05-15T01:42:24.684Z,18.13
2018-05-15T01:44:52.111Z,18.20
2018-05-15T01:47:19.483Z,18.15
2018-05-15T01:49:46.873Z,18.03
2018-05-15T01:52:14.251Z,17.89
2018-05-15T01:54:41.639Z,17.89
2018-05-15T01:57:09.187Z,17.91
2018-05-15T01:59:36.596Z,17.80
2018-05-15T02:02:04.187Z,17.89
2018-05-15T02:04:31.587Z,17.77
2018-05-15T02:06:58.971Z,17.80
2018-05-15T02:09:26.354Z,17.76
2018-05-15T02:11:53.751Z,17.70
2018-05-15T02:14:21.136Z,17.55
2018-05-15T02:16:49.477Z,17.43
2018-05-15T02:19:16.871Z,17.55
2018-05-15T02:21:44.245Z,17.75
2018-05-15T02:24:11.625Z,17.68
2018-05-15T02:26:39.012Z,17.52
2018-05-15T02:29:06.386Z,17.63
2018-05-15T02:31:33.769Z,17.49
2018-05-15T02:34:01.145Z,17.53
2018-05-15T02:36:28.538Z,17.55
2018-05-15T02:38:55.908Z,17.53
2018-05-15T02:41:23.292Z,17.56
2018-05-15T02:43:50.664Z,17.59
2018-05-15T02:46:18.548Z,17.37
2018-05-15T02:48:45.939Z,17.35
2018-05-15T02:51:13.323Z,17.42
2018-05-15T02:53:40.705Z,17.41
2018-05-15T02:56:08.075Z,17.31
2018-05-15T02:58:35.796Z,17.38
2018-05-15T03:01:03.160Z,17.36
2018-05-15T03:03:30.540Z,17.32
2018-05-15T03:05:57.945Z,17.21
2018-05-15T03:08:25.321Z,17.30
2018-05-15T03:10:52.703Z,17.25
2018-05-15T03:13:20.079Z,17.30
2018-05-15T03:15:47.467Z,17.37
2018-05-15T03:18:14.841Z,17.28
2018-05-15T03:20:42.226Z,17.26
2018-05-15T03:23:09.595Z,17.27
2018-05-15T03:25:36.976Z,17.18
2018-05-15T03:28:04.348Z,17.30
2018-05-15T03:30:31.735Z,17.00
2018-05-15T03:32:59.116Z,17.13
2018-05-15T03:35:26.507Z,17.09
2018-05-15T03:37:53.882Z,17.30
2018-05-15T03:40:21.329Z,17.28
2018-05-15T03:42:48.890Z,17.22
2018-05-15T03:45:16.319Z,17.26
2018-05-15T03:47:43.705Z,17.29
2018-05-15T03:50:11.099Z,17.30
2018-05-15T03:52:38.480Z,17.26
2018-05-15T03:55:05.864Z,17.24
2018-05-15T03:57:33.501Z,17.38
2018-05-15T04:00:00.873Z,17.17
2018-05-15T04:02:40.011Z,17.20
2018-05-15T04:05:19.186Z,17.30
2018-05-15T04:08:11.162Z,17.22
2018-05-15T04:10:38.547Z,17.06
2018-05-15T04:13:05.952Z,17.16
2018-05-15T04:15:33.339Z,17.05
2018-05-15T04:18:00.715Z,17.11
2018-05-15T04:20:28.109Z,17.27
2018-05-15T04:22:55.484Z,17.10
2018-05-15T04:25:22.867Z,17.07
2018-05-15T04:27:50.246Z,17.12
2018-05-15T04:30:17.938Z,17.07
2018-05-15T04:32:46.056Z,17.27
2018-05-15T04:35:13.453Z,17.14
2018-05-15T04:37:40.819Z,17.04
2018-05-15T04:40:08.208Z,17.01
2018-05-15T04:42:35.611Z,17.14
2018-05-15T04:45:02.974Z,17.04
2018-05-15T04:47:30.357Z,17.17
2018-05-15T04:49:57.770Z,17.03
2018-05-15T04:52:25.135Z,17.06
2018-05-15T04:54:52.515Z,17.13
2018-05-15T04:57:19.895Z,17.17
2018-05-15T04:59:47.269Z,17.14
2018-05-15T05:02:14.653Z,17.16
2018-05-15T05:04:42.056Z,17.05
2018-05-15T05:07:09.441Z,17.07
2018-05-15T05:09:36.820Z,17.09
2018-05-15T05:12:04.207Z,17.23
2018-05-15T05:14:31.583Z,17.09
2018-05-15T05:16:58.967Z,17.25
2018-05-15T05:19:26.382Z,17.03
2018-05-15T05:21:53.749Z,17.10
2018-05-15T05:24:21.230Z,17.11
2018-05-15T05:26:49.539Z,17.08
2018-05-15T05:29:16.913Z,17.23
2018-05-15T05:31:44.296Z,17.21
2018-05-15T05:34:11.672Z,17.27
2018-05-15T05:36:39.042Z,17.24
2018-05-15T05:39:06.446Z,17.16
2018-05-15T05:41:34.083Z,17.23
2018-05-15T05:44:01.491Z,17.32
2018-05-15T05:46:28.878Z,17.40
2018-05-15T05:48:56.298Z,17.43
2018-05-15T05:51:23.624Z,17.51
2018-05-15T05:53:50.995Z,17.58
2018-05-15T05:56:18.381Z,17.50
2018-05-15T05:58:45.754Z,17.46
2018-05-15T06:01:13.142Z,17.52
2018-05-15T06:03:40.638Z,17.72
2018-05-15T06:06:08.012Z,17.79
2018-05-15T06:08:35.386Z,17.86
2018-05-15T06:11:02.769Z,17.97
2018-05-15T06:13:30.150Z,18.04
2018-05-15T06:15:57.520Z,18.02
2018-05-15T06:18:24.898Z,18.14
2018-05-15T06:20:52.333Z,18.23
2018-05-15T06:23:19.706Z,18.19
2018-05-15T06:25:47.162Z,18.20
2018-05-15T06:28:14.539Z,18.28
2018-05-15T06:30:41.932Z,18.45
2018-05-15T06:33:09.313Z,18.28
2018-05-15T06:35:36.691Z,18.27
2018-05-15T06:38:04.077Z,18.23
2018-05-15T06:40:31.467Z,18.21
2018-05-15T06:42:58.850Z,18.30
2018-05-15T06:45:26.226Z,18.35
2018-05-15T06:47:54.328Z,18.36
2018-05-15T06:50:21.705Z,18.29
2018-05-15T06:52:49.818Z,18.27
2018-05-15T06:55:17.186Z,18.32
2018-05-15T06:57:46.280Z,18.44
2018-05-15T07:00:13.658Z,18.48
2018-05-15T07:02:41.037Z,18.43
2018-05-15T07:05:08.416Z,18.64
2018-05-15T07:07:36.006Z,18.63
2018-05-15T07:10:03.395Z,18.68
2018-05-15T07:12:30.778Z,18.88
2018-05-15T07:14:58.181Z,19.00
2018-05-15T07:17:25.584Z,18.95
2018-05-15T07:19:52.969Z,19.12
2018-05-15T07:22:20.346Z,19.20
2018-05-15T07:24:47.722Z,19.22
2018-05-15T07:27:15.108Z,19.36
2018-05-15T07:29:42.495Z,19.42
2018-05-15T07:32:09.868Z,19.54
2018-05-15T07:34:37.234Z,19.54
2018-05-15T07:37:04.614Z,19.70
2018-05-15T07:39:31.998Z,19.66
2018-05-15T07:42:00.317Z,19.92
2018-05-15T07:44:27.700Z,20.00
2018-05-15T07:46:55.105Z,20.04
2018-05-15T07:49:22.467Z,20.02
2018-05-15T07:51:50.168Z,20.13
2018-05-15T07:54:17.554Z,20.17
2018-05-15T07:56:44.950Z,20.17
2018-05-15T07:59:12.315Z,20.29
2018-05-15T08:01:39.727Z,20.38
2018-05-15T08:04:07.124Z,20.56
2018-05-15T08:06:34.507Z,20.53
2018-05-15T08:09:01.888Z,20.66
2018-05-15T08:11:29.443Z,20.68
2018-05-15T08:13:56.824Z,20.53
2018-05-15T08:16:24.274Z,20.51
2018-05-15T08:18:51.582Z,20.71
2018-05-15T08:21:18.961Z,20.75
2018-05-15T08:23:46.346Z,20.63
2018-05-15T08:26:13.718Z,20.61
2018-05-15T08:28:41.106Z,20.57
2018-05-15T08:31:08.484Z,20.57
2018-05-15T08:33:35.899Z,20.80
2018-05-15T08:36:03.287Z,21.01
2018-05-15T08:38:30.666Z,21.08
2018-05-15T08:40:58.060Z,21.17
2018-05-15T08:43:25.440Z,21.36
2018-05-15T08:45:52.817Z,21.35
2018-05-15T08:48:20.361Z,21.50
2018-05-15T08:50:47.779Z,21.54
2018-05-15T08:53:15.162Z,21.60
2018-05-15T08:55:42.763Z,21.56
2018-05-15T08:58:10.281Z,21.59
2018-05-15T09:00:37.662Z,21.77
2018-05-15T09:03:05.039Z,21.73
2018-05-15T09:05:32.489Z,21.75
2018-05-15T09:07:59.874Z,21.74
2018-05-15T09:10:27.248Z,21.87
2018-05-15T09:12:54.631Z,21.93
2018-05-15T09:15:22.017Z,21.90
2018-05-15T09:17:50.463Z,21.92
2018-05-15T09:20:17.942Z,21.95
2018-05-15T09:22:45.317Z,21.90
2018-05-15T09:25:12.691Z,21.86
2018-05-15T09:27:40.080Z,21.89
2018-05-15T09:30:07.451Z,21.93
2018-05-15T09:32:34.838Z,22.00
2018-05-15T09:35:02.220Z,22.07
2018-05-15T09:37:29.598Z,22.00
2018-05-15T09:39:57.071Z,21.99
2018-05-15T09:42:24.446Z,22.05
2018-05-15T09:44:52.220Z,22.20
2018-05-15T09:47:20.667Z,22.41
2018-05-15T09:49:48.079Z,22.53
2018-05-15T09:52:15.520Z,22.60
2018-05-15T09:54:42.854Z,22.64
2018-05-15T09:57:10.239Z,22.84
2018-05-15T09:59:37.611Z,22.88
2018-05-15T10:02:04.988Z,22.77
2018-05-15T10:04:32.378Z,22.56
2018-05-15T10:06:59.758Z,22.65
2018-05-15T10:09:27.157Z,22.79
2018-05-15T10:11:54.528Z,22.86
2018-05-15T10:14:22.111Z,22.78
2018-05-15T10:16:49.499Z,22.70
2018-05-15T10:19:16.955Z,22.95
2018-05-15T10:21:44.255Z,23.02
2018-05-15T10:24:12.430Z,23.10
2018-05-15T10:26:39.820Z,22.99
2018-05-15T10:29:07.210Z,23.06
2018-05-15T10:31:34.586Z,23.24
2018-05-15T10:34:01.968Z,23.34
2018-05-15T10:36:29.347Z,23.44
2018-05-15T10:38:56.727Z,23.59
2018-05-15T10:41:24.164Z,23.36
2018-05-15T10:43:51.592Z,23.47
2018-05-15T10:46:18.923Z,23.49
2018-05-15T10:48:46.519Z,23.64
2018-05-15T10:51:13.926Z,23.69
2018-05-15T10:53:41.505Z,23.69
2018-05-15T10:56:08.971Z,23.69
2018-05-15T10:58:36.364Z,23.81
2018-05-15T11:01:03.800Z,23.76
2018-05-15T11:03:31.226Z,23.86
2018-05-15T11:05:58.605Z,23.70
2018-05-15T11:08:25.991Z,23.54
2018-05-15T11:10:55.249Z,23.41
2018-05-15T11:13:22.633Z,23.61
2018-05-15T11:15:50.012Z,23.88
2018-05-15T11:18:29.158Z,24.17
2018-05-15T11:21:08.306Z,24.20
2018-05-15T11:23:47.548Z,24.10
2018-05-15T11:26:14.947Z,23.97
2018-05-15T11:28:42.340Z,23.92
2018-05-15T11:31:09.731Z,24.31
2018-05-15T11:33:37.375Z,24.27
2018-05-15T11:36:04.827Z,24.28
2018-05-15T11:38:32.160Z,25.05
2018-05-15T11:40:59.553Z,24.84
2018-05-15T11:43:27.070Z,24.49
2018-05-15T11:45:54.463Z,24.20
2018-05-15T11:48:22.332Z,23.96
2018-05-15T11:50:50.176Z,23.85
2018-05-15T11:53:17.299Z,23.73
2018-05-15T11:55:44.009Z,23.61
2018-05-15T11:58:11.410Z,23.56
2018-05-15T12:00:38.769Z,23.78
2018-05-15T12:03:06.148Z,24.38
2018-05-15T12:05:33.542Z,24.96
2018-05-15T12:08:01.030Z,25.49
2018-05-15T12:10:28.364Z,26.49
2018-05-15T12:12:55.735Z,27.21
2018-05-15T12:15:23.079Z,26.76
2018-05-15T12:17:51.538Z,25.92
2018-05-15T12:20:18.916Z,25.49
2018-05-15T12:22:46.303Z,25.08
2018-05-15T12:25:13.697Z,24.91
2018-05-15T12:27:43.321Z,25.49
2018-05-15T12:30:08.460Z,27.18
2018-05-15T12:32:35.877Z,28.56
2018-05-15T12:35:03.446Z,29.60
2018-05-15T12:37:30.829Z,28.91
2018-05-15T12:39:58.249Z,27.40
2018-05-15T12:42:25.612Z,27.49
2018-05-15T12:44:53.000Z,29.05
2018-05-15T12:47:20.371Z,29.33
2018-05-15T12:49:47.754Z,29.85
2018-05-15T12:52:15.143Z,30.11
2018-05-15T12:54:42.534Z,30.92
2018-05-15T12:57:09.916Z,31.35
2018-05-15T12:59:37.311Z,30.83
2018-05-15T13:02:04.704Z,31.29
2018-05-15T13:04:32.096Z,31.33
2018-05-15T13:06:59.480Z,31.11
2018-05-15T13:09:27.168Z,29.77
2018-05-15T13:11:54.544Z,29.59
2018-05-15T13:14:25.811Z,29.33
2018-05-15T13:16:53.182Z,29.20
2018-05-15T13:19:20.575Z,28.67
2018-05-15T13:21:47.951Z,28.70
2018-05-15T13:24:15.343Z,29.42
2018-05-15T13:26:42.718Z,29.89
2018-05-15T13:29:10.103Z,29.68
2018-05-15T13:31:37.479Z,29.50
2018-05-15T13:34:04.951Z,29.45
2018-05-15T13:36:32.307Z,29.68
2018-05-15T13:38:59.703Z,30.60
2018-05-15T13:41:27.255Z,31.79
2018-05-15T13:43:54.645Z,32.48
2018-05-15T13:46:22.029Z,32.31
2018-05-15T13:48:49.432Z,32.92
2018-05-15T13:51:16.834Z,33.08
2018-05-15T13:53:44.248Z,33.11
2018-05-15T13:56:11.662Z,32.27
2018-05-15T13:58:39.066Z,33.04
2018-05-15T14:01:06.450Z,31.91
2018-05-15T14:03:33.834Z,31.81
2018-05-15T14:06:01.241Z,31.01
2018-05-15T14:08:28.604Z,31.33
2018-05-15T14:10:56.000Z,32.67
2018-05-15T14:13:23.396Z,32.77
2018-05-15T14:15:50.792Z,32.84
2018-05-15T14:18:18.166Z,33.27
2018-05-15T14:20:45.559Z,33.70
2018-05-15T14:23:12.948Z,33.86
2018-05-15T14:25:40.332Z,32.57
2018-05-15T14:28:07.703Z,32.40
2018-05-15T14:30:35.092Z,32.67
2018-05-15T14:33:02.471Z,32.44
2018-05-15T14:35:29.855Z,31.47
2018-05-15T14:37:57.233Z,31.37
2018-05-15T14:40:27.890Z,31.03
2018-05-15T14:43:07.019Z,30.62
2018-05-15T14:45:34.376Z,30.40
2018-05-15T14:48:01.760Z,31.48
2018-05-15T14:50:29.144Z,32.04
2018-05-15T14:52:56.532Z,32.95
2018-05-15T14:55:23.919Z,32.83
2018-05-15T14:57:53.432Z,33.44
2018-05-15T15:00:20.815Z,33.33
2018-05-15T15:02:48.200Z,32.84
2018-05-15T15:05:15.584Z,32.79
2018-05-15T15:07:43.002Z,33.32
2018-05-15T15:10:10.405Z,33.96
2018-05-15T15:12:37.787Z,34.57
2018-05-15T15:15:05.426Z,33.97
2018-05-15T15:17:32.923Z,33.35
2018-05-15T15:20:00.227Z,33.60
2018-05-15T15:22:27.629Z,32.76
2018-05-15T15:24:55.035Z,32.75
2018-05-15T15:27:22.417Z,32.81
2018-05-15T15:29:49.815Z,33.40
2018-05-15T15:32:17.186Z,33.33
2018-05-15T15:34:44.583Z,32.87
2018-05-15T15:37:12.410Z,32.33
2018-05-15T15:39:39.790Z,32.54
2018-05-15T15:42:07.169Z,32.48
2018-05-15T15:44:34.578Z,33.02
2018-05-15T15:47:01.955Z,32.64
2018-05-15T15:49:29.399Z,31.51
2018-05-15T15:51:56.839Z,31.10
2018-05-15T15:54:24.229Z,30.58
2018-05-15T15:56:52.522Z,30.13
2018-05-15T15:59:19.923Z,30.35
2018-05-15T16:01:47.614Z,30.24
2018-05-15T16:04:15.111Z,29.95
2018-05-15T16:06:42.522Z,29.37
2018-05-15T16:09:09.900Z,29.06
2018-05-15T16:11:37.285Z,28.88
2018-05-15T16:14:04.662Z,28.29
2018-05-15T16:16:32.040Z,28.01
2018-05-15T16:18:59.425Z,28.10
2018-05-15T16:21:27.148Z,27.78
2018-05-15T16:23:54.526Z,28.21
2018-05-15T16:26:24.087Z,28.10
2018-05-15T16:28:51.458Z,27.76
2018-05-15T16:31:18.847Z,27.94
2018-05-15T16:33:46.231Z,27.68
2018-05-15T16:36:13.659Z,27.53
2018-05-15T16:38:41.039Z,27.87
2018-05-15T16:41:08.643Z,27.91
2018-05-15T16:43:36.425Z,27.61
2018-05-15T16:46:03.819Z,27.69
2018-05-15T16:48:31.192Z,27.87
2018-05-15T16:50:58.591Z,27.72
2018-05-15T16:53:25.996Z,27.18
2018-05-15T16:55:53.516Z,27.23
2018-05-15T16:58:20.982Z,27.10
2018-05-15T17:00:48.360Z,27.06
2018-05-15T17:03:15.929Z,27.04
2018-05-15T17:05:43.340Z,26.79
2018-05-15T17:08:10.782Z,26.80
2018-05-15T17:10:38.112Z,26.83
2018-05-15T17:13:05.487Z,26.48
2018-05-15T17:15:32.917Z,26.61
2018-05-15T17:18:00.279Z,26.45
2018-05-15T17:20:27.669Z,26.60
2018-05-15T17:22:55.059Z,26.52
2018-05-15T17:25:22.918Z,26.64
2018-05-15T17:27:50.299Z,26.31
2018-05-15T17:30:17.688Z,26.43
2018-05-15T17:32:45.073Z,26.46
2018-05-15T17:35:12.446Z,26.22
2018-05-15T17:37:39.830Z,26.38
2018-05-15T17:40:07.218Z,26.37
2018-05-15T17:42:34.594Z,26.27
2018-05-15T17:45:02.073Z,25.94
2018-05-15T17:47:29.515Z,25.85
2018-05-15T17:49:57.046Z,25.72
2018-05-15T17:52:24.475Z,25.55
2018-05-15T17:54:51.851Z,25.74
2018-05-15T17:57:19.494Z,25.72
2018-05-15T17:59:46.921Z,25.65
2018-05-15T18:02:14.263Z,25.32
2018-05-15T18:04:41.652Z,24.98
2018-05-15T18:07:09.039Z,24.85
2018-05-15T18:09:36.415Z,24.40
2018-05-15T18:12:03.801Z,24.07
2018-05-15T18:14:31.219Z,24.05
2018-05-15T18:16:58.616Z,24.19
2018-05-15T18:19:26.031Z,23.87
2018-05-15T18:21:53.431Z,23.73
2018-05-15T18:24:20.815Z,23.45
2018-05-15T18:26:48.200Z,23.37
2018-05-15T18:29:15.615Z,23.54
2018-05-15T18:31:42.989Z,23.38
2018-05-15T18:34:10.361Z,23.34
2018-05-15T18:36:37.759Z,23.42
2018-05-15T18:39:05.963Z,23.06
2018-05-15T18:41:33.302Z,23.08
2018-05-15T18:44:00.674Z,22.91
2018-05-15T18:46:28.063Z,23.03
2018-05-15T18:48:55.442Z,22.66
2018-05-15T18:51:23.287Z,22.92
2018-05-15T18:53:50.675Z,22.22
2018-05-15T18:56:18.062Z,22.66
2018-05-15T18:58:45.446Z,22.82
2018-05-15T19:01:12.835Z,22.63
2018-05-15T19:03:40.216Z,21.99
2018-05-15T19:06:07.619Z,22.15
2018-05-15T19:08:34.995Z,22.17
2018-05-15T19:11:02.388Z,22.76
2018-05-15T19:13:29.762Z,22.25
2018-05-15T19:15:57.175Z,21.73
2018-05-15T19:18:24.539Z,21.97
2018-05-15T19:20:51.943Z,21.69
2018-05-15T19:23:19.326Z,21.50
2018-05-15T19:25:46.711Z,21.57
2018-05-15T19:28:14.083Z,21.64
2018-05-15T19:30:41.472Z,21.77
2018-05-15T19:33:08.938Z,20.84
2018-05-15T19:35:41.064Z,21.20
2018-05-15T19:38:08.440Z,21.36
2018-05-15T19:40:41.765Z,21.29
2018-05-15T19:43:09.145Z,21.23
2018-05-15T19:45:36.523Z,20.35
2018-05-15T19:48:03.911Z,20.97
2018-05-15T19:50:31.300Z,20.62
2018-05-15T19:52:58.688Z,21.09
2018-05-15T19:55:26.063Z,21.00
2018-05-15T19:57:53.675Z,20.56
2018-05-15T20:00:21.054Z,20.94
2018-05-15T20:02:48.442Z,21.01
2018-05-15T20:05:15.813Z,21.09
2018-05-15T20:07:43.223Z,21.40
2018-05-15T20:10:10.599Z,21.13
2018-05-15T20:12:37.984Z,21.07
2018-05-15T20:15:05.356Z,21.14
2018-05-15T20:17:32.813Z,21.06
2018-05-15T20:20:00.226Z,21.07
2018-05-15T20:22:27.602Z,21.15
2018-05-15T20:24:55.208Z,20.85
2018-05-15T20:27:22.596Z,21.07
2018-05-15T20:29:50.046Z,20.90
2018-05-15T20:32:17.429Z,20.59
2018-05-15T20:34:44.897Z,20.84
2018-05-15T20:37:12.197Z,21.04
2018-05-15T20:39:39.723Z,20.86
2018-05-15T20:42:07.188Z,20.93
2018-05-15T20:44:34.562Z,20.83
2018-05-15T20:47:01.944Z,20.90
2018-05-15T20:49:29.318Z,20.85
2018-05-15T20:51:56.708Z,20.55
2018-05-15T20:54:24.090Z,20.56
2018-05-15T20:56:51.577Z,20.41
2018-05-15T20:59:19.230Z,20.37
2018-05-15T21:01:46.619Z,20.21
2018-05-15T21:04:14.129Z,20.12
2018-05-15T21:06:41.560Z,19.97
2018-05-15T21:09:09.023Z,19.94
2018-05-15T21:11:36.407Z,20.05
2018-05-15T21:14:03.846Z,19.89
2018-05-15T21:16:31.252Z,20.04
2018-05-15T21:18:58.639Z,19.65
2018-05-15T21:21:26.023Z,19.85
2018-05-15T21:23:53.996Z,19.57
2018-05-15T21:26:21.567Z,19.59
2018-05-15T21:28:48.952Z,19.63
2018-05-15T21:31:16.340Z,19.68
2018-05-15T21:33:43.727Z,19.23
2018-05-15T21:36:11.101Z,19.41
2018-05-15T21:38:38.491Z,19.47
2018-05-15T21:41:05.863Z,19.15
2018-05-15T21:43:33.250Z,19.36
2018-05-15T21:46:00.653Z,19.46
2018-05-15T21:48:28.061Z,19.07
2018-05-15T21:50:55.452Z,19.22
2018-05-15T21:53:22.840Z,19.34
2018-05-15T21:55:50.457Z,19.44
2018-05-15T21:58:17.849Z,19.22
2018-05-15T22:00:45.471Z,19.14
2018-05-15T22:03:13.104Z,19.40
2018-05-15T22:05:40.484Z,19.50
2018-05-15T22:08:07.880Z,19.22
2018-05-15T22:10:35.457Z,19.26
2018-05-15T22:13:14.625Z,19.13
2018-05-15T22:15:53.901Z,19.18
2018-05-15T22:18:33.196Z,19.01
2018-05-15T22:21:12.254Z,19.15
2018-05-15T22:23:39.132Z,19.04
2018-05-15T22:26:06.516Z,18.71
2018-05-15T22:28:33.908Z,18.74
2018-05-15T22:31:01.285Z,18.91
2018-05-15T22:33:28.659Z,18.61
2018-05-15T22:35:56.046Z,18.46
2018-05-15T22:38:24.484Z,18.32
2018-05-15T22:40:51.848Z,18.49
2018-05-15T22:43:19.451Z,18.64
2018-05-15T22:45:46.815Z,18.51
2018-05-15T22:48:14.199Z,18.35
2018-05-15T22:50:41.575Z,18.43
2018-05-15T22:53:08.956Z,18.63
2018-05-15T22:55:36.341Z,18.58
2018-05-15T22:58:03.754Z,18.43
2018-05-15T23:00:31.508Z,18.78
2018-05-15T23:02:58.964Z,18.94
2018-05-15T23:05:26.368Z,18.72
2018-05-15T23:07:54.455Z,19.01
2018-05-15T23:10:21.850Z,18.67
2018-05-15T23:12:49.236Z,18.54
2018-05-15T23:15:16.624Z,18.98
2018-05-15T23:17:44.011Z,19.09
2018-05-15T23:20:11.394Z,18.90
2018-05-15T23:22:43.684Z,19.03
2018-05-15T23:25:11.066Z,18.97
2018-05-15T23:27:38.506Z,19.05
2018-05-15T23:30:05.903Z,18.73
2018-05-15T23:32:33.295Z,18.87
2018-05-15T23:35:00.685Z,18.98
2018-05-15T23:37:28.076Z,19.17
2018-05-15T23:39:55.457Z,18.71
2018-05-15T23:42:23.119Z,19.07
2018-05-15T23:44:50.933Z,19.03
2018-05-15T23:47:18.578Z,19.03
2018-05-15T23:49:47.983Z,18.89
2018-05-15T23:52:15.450Z,18.71
2018-05-15T23:54:42.816Z,18.91
2018-05-15T23:57:10.328Z,19.12
2018-05-15T23:59:37.838Z,18.96
